sensor_id;sensor_type;location;lat;lon;timestamp;P1;durP1;ratioP1;P2;durP2;ratioP2
55254;SDS011;41118;44.634;11.182;2023-01-28T00:01:08;2.13;;;0.55;;
55254;SDS011;41118;44.634;11.182;2023-01-28T00:03:35;3.53;;;0.63;;
55254;SDS011;41118;44.634;11.182;2023-01-28T00:06:02;3.83;;;0.52;;
55254;SDS011;41118;44.634;11.182;2023-01-28T00:08:29;7.15;;;0.73;;
55254;SDS011;41118;44.634;11.182;2023-01-28T00:10:57;2.40;;;0.60;;
55254;SDS011;41118;44.634;11.182;2023-01-28T00:13:24;3.38;;;0.82;;
55254;SDS011;41118;44.634;11.182;2023-01-28T00:15:57;6.78;;;0.75;;
55254;SDS011;41118;44.634;11.182;2023-01-28T00:18:24;4.35;;;0.77;;
55254;SDS011;41118;44.634;11.182;2023-01-28T00:20:57;2.53;;;0.40;;
55254;SDS011;41118;44.634;11.182;2023-01-28T00:23:24;2.88;;;0.65;;
55254;SDS011;41118;44.634;11.182;2023-01-28T00:25:50;4.97;;;0.60;;
55254;SDS011;41118;44.634;11.182;2023-01-28T00:28:16;5.75;;;0.70;;
55254;SDS011;41118;44.634;11.182;2023-01-28T00:30:41;2.20;;;0.57;;
55254;SDS011;41118;44.634;11.182;2023-01-28T00:33:08;6.53;;;0.68;;
55254;SDS011;41118;44.634;11.182;2023-01-28T00:35:34;7.43;;;0.43;;
55254;SDS011;41118;44.634;11.182;2023-01-28T00:38:00;3.38;;;0.88;;
55254;SDS011;41118;44.634;11.182;2023-01-28T00:40:28;8.00;;;0.75;;
55254;SDS011;41118;44.634;11.182;2023-01-28T00:42:54;3.20;;;0.60;;
55254;SDS011;41118;44.634;11.182;2023-01-28T00:45:20;1.80;;;0.40;;
55254;SDS011;41118;44.634;11.182;2023-01-28T00:47:46;4.28;;;0.70;;
55254;SDS011;41118;44.634;11.182;2023-01-28T00:50:12;6.47;;;0.50;;
55254;SDS011;41118;44.634;11.182;2023-01-28T00:52:38;3.40;;;0.50;;
55254;SDS011;41118;44.634;11.182;2023-01-28T00:55:05;3.63;;;0.55;;
55254;SDS011;41118;44.634;11.182;2023-01-28T00:57:31;7.93;;;0.60;;
55254;SDS011;41118;44.634;11.182;2023-01-28T00:59:58;3.35;;;0.55;;
55254;SDS011;41118;44.634;11.182;2023-01-28T01:02:24;3.80;;;0.80;;
55254;SDS011;41118;44.634;11.182;2023-01-28T01:04:51;4.05;;;0.95;;
55254;SDS011;41118;44.634;11.182;2023-01-28T01:07:24;3.55;;;0.50;;
55254;SDS011;41118;44.634;11.182;2023-01-28T01:09:59;3.40;;;0.50;;
55254;SDS011;41118;44.634;11.182;2023-01-28T01:12:25;5.03;;;0.60;;
55254;SDS011;41118;44.634;11.182;2023-01-28T01:14:51;4.03;;;0.65;;
55254;SDS011;41118;44.634;11.182;2023-01-28T01:17:18;5.90;;;0.60;;
55254;SDS011;41118;44.634;11.182;2023-01-28T01:19:45;5.30;;;0.68;;
55254;SDS011;41118;44.634;11.182;2023-01-28T01:22:11;2.03;;;0.60;;
55254;SDS011;41118;44.634;11.182;2023-01-28T01:24:37;2.85;;;0.40;;
55254;SDS011;41118;44.634;11.182;2023-01-28T01:27:04;4.50;;;0.47;;
55254;SDS011;41118;44.634;11.182;2023-01-28T01:29:31;2.38;;;0.30;;
55254;SDS011;41118;44.634;11.182;2023-01-28T01:31:58;5.00;;;0.75;;
55254;SDS011;41118;44.634;11.182;2023-01-28T01:34:24;2.80;;;0.30;;
55254;SDS011;41118;44.634;11.182;2023-01-28T01:36:50;5.30;;;0.30;;
55254;SDS011;41118;44.634;11.182;2023-01-28T01:39:17;2.17;;;0.32;;
55254;SDS011;41118;44.634;11.182;2023-01-28T01:41:43;3.58;;;0.40;;
55254;SDS011;41118;44.634;11.182;2023-01-28T01:49:21;3.25;;;0.40;;
55254;SDS011;41118;44.634;11.182;2023-01-28T01:51:50;5.18;;;0.30;;
55254;SDS011;41118;44.634;11.182;2023-01-28T01:54:17;1.33;;;0.30;;
55254;SDS011;41118;44.634;11.182;2023-01-28T01:56:45;2.63;;;0.30;;
55254;SDS011;41118;44.634;11.182;2023-01-28T01:59:13;3.85;;;0.60;;
55254;SDS011;41118;44.634;11.182;2023-01-28T02:01:40;1.33;;;0.30;;
55254;SDS011;41118;44.634;11.182;2023-01-28T02:04:24;2.75;;;0.20;;
55254;SDS011;41118;44.634;11.182;2023-01-28T02:06:51;2.72;;;0.40;;
55254;SDS011;41118;44.634;11.182;2023-01-28T02:09:24;1.80;;;0.40;;
55254;SDS011;41118;44.634;11.182;2023-01-28T02:11:52;2.22;;;0.20;;
55254;SDS011;41118;44.634;11.182;2023-01-28T02:14:20;1.27;;;0.20;;
55254;SDS011;41118;44.634;11.182;2023-01-28T02:16:47;1.30;;;0.20;;
55254;SDS011;41118;44.634;11.182;2023-01-28T02:19:13;1.00;;;0.17;;
55254;SDS011;41118;44.634;11.182;2023-01-28T02:27:18;0.93;;;0.30;;
55254;SDS011;41118;44.634;11.182;2023-01-28T02:30:07;3.65;;;0.30;;
55254;SDS011;41118;44.634;11.182;2023-01-28T02:32:39;5.15;;;0.30;;
55254;SDS011;41118;44.634;11.182;2023-01-28T02:37:59;19.05;;;1.17;;
55254;SDS011;41118;44.634;11.182;2023-01-28T02:40:28;3.25;;;0.40;;
55254;SDS011;41118;44.634;11.182;2023-01-28T02:42:56;2.25;;;0.40;;
55254;SDS011;41118;44.634;11.182;2023-01-28T02:45:24;6.43;;;0.50;;
55254;SDS011;41118;44.634;11.182;2023-01-28T02:48:10;4.15;;;0.40;;
55254;SDS011;41118;44.634;11.182;2023-01-28T02:50:38;2.10;;;0.40;;
55254;SDS011;41118;44.634;11.182;2023-01-28T02:53:12;3.20;;;0.50;;
55254;SDS011;41118;44.634;11.182;2023-01-28T02:58:44;3.15;;;0.50;;
55254;SDS011;41118;44.634;11.182;2023-01-28T03:01:22;3.90;;;0.70;;
55254;SDS011;41118;44.634;11.182;2023-01-28T03:06:20;4.72;;;0.70;;
55254;SDS011;41118;44.634;11.182;2023-01-28T03:08:52;4.40;;;0.70;;
55254;SDS011;41118;44.634;11.182;2023-01-28T03:11:41;3.45;;;0.60;;
55254;SDS011;41118;44.634;11.182;2023-01-28T03:14:26;4.90;;;0.95;;
55254;SDS011;41118;44.634;11.182;2023-01-28T03:17:14;6.95;;;0.75;;
55254;SDS011;41118;44.634;11.182;2023-01-28T03:20:00;3.42;;;0.75;;
55254;SDS011;41118;44.634;11.182;2023-01-28T03:22:45;4.97;;;0.93;;
55254;SDS011;41118;44.634;11.182;2023-01-28T03:25:31;4.78;;;0.70;;
55254;SDS011;41118;44.634;11.182;2023-01-28T03:28:17;2.65;;;0.60;;
55254;SDS011;41118;44.634;11.182;2023-01-28T03:31:11;2.38;;;0.50;;
55254;SDS011;41118;44.634;11.182;2023-01-28T03:33:56;4.97;;;0.73;;
55254;SDS011;41118;44.634;11.182;2023-01-28T03:36:42;4.55;;;0.60;;
55254;SDS011;41118;44.634;11.182;2023-01-28T03:39:15;8.10;;;0.82;;
55254;SDS011;41118;44.634;11.182;2023-01-28T03:41:41;2.58;;;0.50;;
55254;SDS011;41118;44.634;11.182;2023-01-28T03:44:07;3.88;;;0.70;;
55254;SDS011;41118;44.634;11.182;2023-01-28T03:46:52;5.25;;;0.57;;
55254;SDS011;41118;44.634;11.182;2023-01-28T03:49:18;4.57;;;0.30;;
55254;SDS011;41118;44.634;11.182;2023-01-28T03:51:44;8.75;;;1.40;;
55254;SDS011;41118;44.634;11.182;2023-01-28T03:54:11;4.10;;;0.52;;
55254;SDS011;41118;44.634;11.182;2023-01-28T03:56:37;4.55;;;0.65;;
55254;SDS011;41118;44.634;11.182;2023-01-28T03:59:05;2.92;;;0.57;;
55254;SDS011;41118;44.634;11.182;2023-01-28T04:01:31;4.93;;;0.60;;
55254;SDS011;41118;44.634;11.182;2023-01-28T04:03:57;4.72;;;0.50;;
55254;SDS011;41118;44.634;11.182;2023-01-28T04:06:23;4.68;;;0.85;;
55254;SDS011;41118;44.634;11.182;2023-01-28T04:08:50;7.47;;;0.85;;
55254;SDS011;41118;44.634;11.182;2023-01-28T04:11:23;4.22;;;0.77;;
55254;SDS011;41118;44.634;11.182;2023-01-28T04:13:50;2.88;;;0.95;;
55254;SDS011;41118;44.634;11.182;2023-01-28T04:16:17;4.57;;;0.93;;
55254;SDS011;41118;44.634;11.182;2023-01-28T04:18:44;4.45;;;0.50;;
55254;SDS011;41118;44.634;11.182;2023-01-28T04:21:10;2.05;;;0.43;;
55254;SDS011;41118;44.634;11.182;2023-01-28T04:23:37;3.65;;;0.68;;
55254;SDS011;41118;44.634;11.182;2023-01-28T04:26:03;7.13;;;0.80;;
55254;SDS011;41118;44.634;11.182;2023-01-28T04:28:29;7.05;;;1.40;;
55254;SDS011;41118;44.634;11.182;2023-01-28T04:30:55;7.25;;;0.90;;
55254;SDS011;41118;44.634;11.182;2023-01-28T04:33:22;4.45;;;0.73;;
55254;SDS011;41118;44.634;11.182;2023-01-28T04:35:48;4.38;;;0.65;;
55254;SDS011;41118;44.634;11.182;2023-01-28T04:38:14;3.88;;;1.17;;
55254;SDS011;41118;44.634;11.182;2023-01-28T04:40:41;2.80;;;0.70;;
55254;SDS011;41118;44.634;11.182;2023-01-28T04:43:07;3.72;;;0.60;;
55254;SDS011;41118;44.634;11.182;2023-01-28T04:45:33;3.05;;;0.60;;
55254;SDS011;41118;44.634;11.182;2023-01-28T04:48:00;3.20;;;0.52;;
55254;SDS011;41118;44.634;11.182;2023-01-28T04:50:26;4.80;;;0.57;;
55254;SDS011;41118;44.634;11.182;2023-01-28T04:52:52;10.43;;;1.55;;
55254;SDS011;41118;44.634;11.182;2023-01-28T04:55:19;4.32;;;0.50;;
55254;SDS011;41118;44.634;11.182;2023-01-28T04:57:46;8.77;;;0.80;;
55254;SDS011;41118;44.634;11.182;2023-01-28T05:00:15;9.70;;;0.60;;
55254;SDS011;41118;44.634;11.182;2023-01-28T05:02:41;12.15;;;0.82;;
55254;SDS011;41118;44.634;11.182;2023-01-28T05:05:07;5.88;;;0.90;;
55254;SDS011;41118;44.634;11.182;2023-01-28T05:07:33;4.97;;;0.90;;
55254;SDS011;41118;44.634;11.182;2023-01-28T05:09:59;5.70;;;0.77;;
55254;SDS011;41118;44.634;11.182;2023-01-28T05:12:26;3.55;;;0.95;;
55254;SDS011;41118;44.634;11.182;2023-01-28T05:14:52;3.05;;;0.70;;
55254;SDS011;41118;44.634;11.182;2023-01-28T05:17:18;5.25;;;0.70;;
55254;SDS011;41118;44.634;11.182;2023-01-28T05:19:44;4.53;;;0.98;;
55254;SDS011;41118;44.634;11.182;2023-01-28T05:22:10;4.82;;;0.85;;
55254;SDS011;41118;44.634;11.182;2023-01-28T05:24:37;3.13;;;0.47;;
55254;SDS011;41118;44.634;11.182;2023-01-28T05:27:03;2.60;;;0.52;;
55254;SDS011;41118;44.634;11.182;2023-01-28T05:29:29;4.40;;;1.00;;
55254;SDS011;41118;44.634;11.182;2023-01-28T05:31:56;3.55;;;0.60;;
55254;SDS011;41118;44.634;11.182;2023-01-28T05:34:22;2.28;;;0.55;;
55254;SDS011;41118;44.634;11.182;2023-01-28T05:36:48;3.60;;;0.70;;
55254;SDS011;41118;44.634;11.182;2023-01-28T05:39:14;4.03;;;0.57;;
55254;SDS011;41118;44.634;11.182;2023-01-28T05:41:41;2.35;;;0.57;;
55254;SDS011;41118;44.634;11.182;2023-01-28T05:44:07;3.55;;;0.90;;
55254;SDS011;41118;44.634;11.182;2023-01-28T05:46:33;4.05;;;0.40;;
55254;SDS011;41118;44.634;11.182;2023-01-28T05:48:59;1.98;;;0.40;;
55254;SDS011;41118;44.634;11.182;2023-01-28T05:51:26;2.53;;;0.70;;
55254;SDS011;41118;44.634;11.182;2023-01-28T05:53:52;7.63;;;1.20;;
55254;SDS011;41118;44.634;11.182;2023-01-28T05:56:18;3.20;;;0.70;;
55254;SDS011;41118;44.634;11.182;2023-01-28T05:58:45;2.95;;;0.73;;
55254;SDS011;41118;44.634;11.182;2023-01-28T06:01:11;7.72;;;0.93;;
55254;SDS011;41118;44.634;11.182;2023-01-28T06:03:37;3.40;;;0.50;;
55254;SDS011;41118;44.634;11.182;2023-01-28T06:06:03;8.65;;;1.27;;
55254;SDS011;41118;44.634;11.182;2023-01-28T06:08:29;2.83;;;0.60;;
55254;SDS011;41118;44.634;11.182;2023-01-28T06:10:55;4.03;;;0.60;;
55254;SDS011;41118;44.634;11.182;2023-01-28T06:13:21;6.32;;;0.90;;
55254;SDS011;41118;44.634;11.182;2023-01-28T06:15:48;5.03;;;1.00;;
55254;SDS011;41118;44.634;11.182;2023-01-28T06:18:15;4.00;;;0.80;;
55254;SDS011;41118;44.634;11.182;2023-01-28T06:20:41;3.13;;;0.52;;
55254;SDS011;41118;44.634;11.182;2023-01-28T06:23:07;4.50;;;0.65;;
55254;SDS011;41118;44.634;11.182;2023-01-28T06:25:33;5.22;;;1.65;;
55254;SDS011;41118;44.634;11.182;2023-01-28T06:27:59;3.53;;;0.63;;
55254;SDS011;41118;44.634;11.182;2023-01-28T06:30:25;5.03;;;0.60;;
55254;SDS011;41118;44.634;11.182;2023-01-28T06:32:55;9.00;;;1.27;;
55254;SDS011;41118;44.634;11.182;2023-01-28T06:35:22;3.35;;;0.70;;
55254;SDS011;41118;44.634;11.182;2023-01-28T06:37:48;6.32;;;1.05;;
55254;SDS011;41118;44.634;11.182;2023-01-28T06:40:14;3.08;;;0.55;;
55254;SDS011;41118;44.634;11.182;2023-01-28T06:42:40;3.20;;;0.82;;
55254;SDS011;41118;44.634;11.182;2023-01-28T06:45:06;4.72;;;1.83;;
55254;SDS011;41118;44.634;11.182;2023-01-28T06:47:32;5.15;;;1.15;;
55254;SDS011;41118;44.634;11.182;2023-01-28T06:49:58;5.70;;;0.60;;
55254;SDS011;41118;44.634;11.182;2023-01-28T06:52:25;4.25;;;0.90;;
55254;SDS011;41118;44.634;11.182;2023-01-28T06:54:51;4.45;;;1.55;;
55254;SDS011;41118;44.634;11.182;2023-01-28T06:57:17;8.30;;;0.73;;
55254;SDS011;41118;44.634;11.182;2023-01-28T06:59:44;6.00;;;0.73;;
55254;SDS011;41118;44.634;11.182;2023-01-28T07:02:10;5.55;;;0.88;;
55254;SDS011;41118;44.634;11.182;2023-01-28T07:04:36;3.55;;;0.70;;
55254;SDS011;41118;44.634;11.182;2023-01-28T07:07:02;2.97;;;0.50;;
55254;SDS011;41118;44.634;11.182;2023-01-28T07:09:28;6.30;;;0.88;;
55254;SDS011;41118;44.634;11.182;2023-01-28T07:11:54;5.78;;;0.93;;
55254;SDS011;41118;44.634;11.182;2023-01-28T07:14:20;5.95;;;0.68;;
55254;SDS011;41118;44.634;11.182;2023-01-28T07:16:47;3.58;;;0.50;;
55254;SDS011;41118;44.634;11.182;2023-01-28T07:19:13;5.55;;;0.47;;
55254;SDS011;41118;44.634;11.182;2023-01-28T07:21:39;4.35;;;0.88;;
55254;SDS011;41118;44.634;11.182;2023-01-28T07:24:05;1.88;;;0.40;;
55254;SDS011;41118;44.634;11.182;2023-01-28T07:26:31;3.15;;;0.65;;
55254;SDS011;41118;44.634;11.182;2023-01-28T07:28:57;4.20;;;0.77;;
55254;SDS011;41118;44.634;11.182;2023-01-28T07:31:24;3.47;;;0.55;;
55254;SDS011;41118;44.634;11.182;2023-01-28T07:33:50;8.50;;;0.52;;
55254;SDS011;41118;44.634;11.182;2023-01-28T07:36:16;3.15;;;0.40;;
55254;SDS011;41118;44.634;11.182;2023-01-28T07:38:43;4.50;;;0.73;;
55254;SDS011;41118;44.634;11.182;2023-01-28T07:41:09;3.47;;;0.77;;
55254;SDS011;41118;44.634;11.182;2023-01-28T07:43:35;4.40;;;0.50;;
55254;SDS011;41118;44.634;11.182;2023-01-28T07:46:01;2.25;;;0.50;;
55254;SDS011;41118;44.634;11.182;2023-01-28T07:48:27;7.60;;;1.45;;
55254;SDS011;41118;44.634;11.182;2023-01-28T07:50:56;5.10;;;0.82;;
55254;SDS011;41118;44.634;11.182;2023-01-28T07:53:23;9.55;;;0.85;;
55254;SDS011;41118;44.634;11.182;2023-01-28T07:55:49;3.85;;;0.70;;
55254;SDS011;41118;44.634;11.182;2023-01-28T07:58:16;4.75;;;0.70;;
55254;SDS011;41118;44.634;11.182;2023-01-28T08:00:42;9.43;;;1.08;;
55254;SDS011;41118;44.634;11.182;2023-01-28T08:03:12;6.25;;;1.45;;
55254;SDS011;41118;44.634;11.182;2023-01-28T08:08:09;7.43;;;1.55;;
55254;SDS011;41118;44.634;11.182;2023-01-28T08:10:35;2.97;;;0.50;;
55254;SDS011;41118;44.634;11.182;2023-01-28T08:13:01;4.85;;;0.68;;
55254;SDS011;41118;44.634;11.182;2023-01-28T08:15:28;3.25;;;0.88;;
55254;SDS011;41118;44.634;11.182;2023-01-28T08:17:54;3.63;;;0.70;;
55254;SDS011;41118;44.634;11.182;2023-01-28T08:20:21;5.68;;;0.70;;
55254;SDS011;41118;44.634;11.182;2023-01-28T08:22:48;3.55;;;1.20;;
55254;SDS011;41118;44.634;11.182;2023-01-28T08:25:14;12.27;;;1.17;;
55254;SDS011;41118;44.634;11.182;2023-01-28T08:27:41;5.57;;;0.60;;
55254;SDS011;41118;44.634;11.182;2023-01-28T08:30:07;4.25;;;0.65;;
55254;SDS011;41118;44.634;11.182;2023-01-28T08:32:34;4.47;;;1.77;;
55254;SDS011;41118;44.634;11.182;2023-01-28T08:35:00;5.15;;;1.33;;
55254;SDS011;41118;44.634;11.182;2023-01-28T08:37:26;7.22;;;1.25;;
55254;SDS011;41118;44.634;11.182;2023-01-28T08:39:52;4.78;;;1.60;;
55254;SDS011;41118;44.634;11.182;2023-01-28T08:42:19;3.70;;;0.80;;
55254;SDS011;41118;44.634;11.182;2023-01-28T08:44:45;5.00;;;0.65;;
55254;SDS011;41118;44.634;11.182;2023-01-28T08:47:12;11.10;;;1.05;;
55254;SDS011;41118;44.634;11.182;2023-01-28T08:49:38;5.30;;;0.55;;
55254;SDS011;41118;44.634;11.182;2023-01-28T08:52:05;5.20;;;1.23;;
55254;SDS011;41118;44.634;11.182;2023-01-28T08:54:31;5.82;;;1.70;;
55254;SDS011;41118;44.634;11.182;2023-01-28T08:56:57;4.60;;;0.60;;
55254;SDS011;41118;44.634;11.182;2023-01-28T08:59:24;3.75;;;1.23;;
55254;SDS011;41118;44.634;11.182;2023-01-28T09:01:50;7.68;;;1.83;;
55254;SDS011;41118;44.634;11.182;2023-01-28T09:04:16;3.95;;;0.60;;
55254;SDS011;41118;44.634;11.182;2023-01-28T09:06:42;5.32;;;1.33;;
55254;SDS011;41118;44.634;11.182;2023-01-28T09:09:08;4.38;;;0.85;;
55254;SDS011;41118;44.634;11.182;2023-01-28T09:11:34;4.18;;;1.15;;
55254;SDS011;41118;44.634;11.182;2023-01-28T09:14:00;9.02;;;2.40;;
55254;SDS011;41118;44.634;11.182;2023-01-28T09:16:27;4.43;;;1.40;;
55254;SDS011;41118;44.634;11.182;2023-01-28T09:18:53;3.72;;;0.65;;
55254;SDS011;41118;44.634;11.182;2023-01-28T09:21:20;5.20;;;0.50;;
55254;SDS011;41118;44.634;11.182;2023-01-28T09:23:46;5.28;;;0.95;;
55254;SDS011;41118;44.634;11.182;2023-01-28T09:26:12;5.82;;;0.75;;
55254;SDS011;41118;44.634;11.182;2023-01-28T09:31:12;3.35;;;1.08;;
55254;SDS011;41118;44.634;11.182;2023-01-28T09:33:39;7.75;;;1.20;;
55254;SDS011;41118;44.634;11.182;2023-01-28T09:36:05;3.15;;;0.80;;
55254;SDS011;41118;44.634;11.182;2023-01-28T09:38:32;6.30;;;1.35;;
55254;SDS011;41118;44.634;11.182;2023-01-28T09:41:18;3.75;;;1.00;;
55254;SDS011;41118;44.634;11.182;2023-01-28T09:43:49;8.52;;;0.75;;
55254;SDS011;41118;44.634;11.182;2023-01-28T09:46:28;4.13;;;0.95;;
55254;SDS011;41118;44.634;11.182;2023-01-28T09:48:56;4.57;;;0.77;;
55254;SDS011;41118;44.634;11.182;2023-01-28T09:53:58;5.45;;;1.25;;
55254;SDS011;41118;44.634;11.182;2023-01-28T09:56:30;2.65;;;0.50;;
55254;SDS011;41118;44.634;11.182;2023-01-28T09:58:57;4.30;;;1.00;;
55254;SDS011;41118;44.634;11.182;2023-01-28T10:01:38;6.20;;;1.23;;
55254;SDS011;41118;44.634;11.182;2023-01-28T10:09:12;6.88;;;2.15;;
55254;SDS011;41118;44.634;11.182;2023-01-28T10:19:33;4.82;;;0.80;;
55254;SDS011;41118;44.634;11.182;2023-01-28T10:22:01;11.00;;;2.13;;
55254;SDS011;41118;44.634;11.182;2023-01-28T10:24:32;6.38;;;1.90;;
55254;SDS011;41118;44.634;11.182;2023-01-28T10:26:59;4.07;;;1.20;;
55254;SDS011;41118;44.634;11.182;2023-01-28T10:29:28;6.75;;;1.13;;
55254;SDS011;41118;44.634;11.182;2023-01-28T10:31:57;6.63;;;1.40;;
55254;SDS011;41118;44.634;11.182;2023-01-28T10:34:24;8.45;;;1.38;;
55254;SDS011;41118;44.634;11.182;2023-01-28T10:36:50;3.63;;;0.60;;
55254;SDS011;41118;44.634;11.182;2023-01-28T10:39:18;6.15;;;1.27;;
55254;SDS011;41118;44.634;11.182;2023-01-28T10:41:45;5.18;;;1.15;;
55254;SDS011;41118;44.634;11.182;2023-01-28T10:44:17;11.40;;;1.30;;
55254;SDS011;41118;44.634;11.182;2023-01-28T10:46:44;5.45;;;1.50;;
55254;SDS011;41118;44.634;11.182;2023-01-28T10:51:38;7.55;;;0.80;;
55254;SDS011;41118;44.634;11.182;2023-01-28T10:54:16;7.00;;;1.77;;
55254;SDS011;41118;44.634;11.182;2023-01-28T10:56:43;7.28;;;1.30;;
55254;SDS011;41118;44.634;11.182;2023-01-28T10:59:19;7.68;;;2.03;;
55254;SDS011;41118;44.634;11.182;2023-01-28T11:01:48;8.85;;;1.17;;
55254;SDS011;41118;44.634;11.182;2023-01-28T11:04:17;9.65;;;2.05;;
55254;SDS011;41118;44.634;11.182;2023-01-28T11:06:50;8.35;;;0.93;;
55254;SDS011;41118;44.634;11.182;2023-01-28T11:09:23;6.15;;;0.73;;
55254;SDS011;41118;44.634;11.182;2023-01-28T11:11:49;6.18;;;2.47;;
55254;SDS011;41118;44.634;11.182;2023-01-28T11:16:46;4.70;;;1.15;;
55254;SDS011;41118;44.634;11.182;2023-01-28T11:19:12;10.20;;;1.15;;
55254;SDS011;41118;44.634;11.182;2023-01-28T11:21:39;6.90;;;1.90;;
55254;SDS011;41118;44.634;11.182;2023-01-28T11:24:06;5.00;;;0.68;;
55254;SDS011;41118;44.634;11.182;2023-01-28T11:26:42;3.88;;;0.60;;
55254;SDS011;41118;44.634;11.182;2023-01-28T11:31:47;9.70;;;3.05;;
55254;SDS011;41118;44.634;11.182;2023-01-28T11:34:17;6.90;;;1.92;;
55254;SDS011;41118;44.634;11.182;2023-01-28T11:36:54;7.30;;;2.17;;
55254;SDS011;41118;44.634;11.182;2023-01-28T11:39:23;10.68;;;3.58;;
55254;SDS011;41118;44.634;11.182;2023-01-28T11:41:52;9.18;;;3.88;;
55254;SDS011;41118;44.634;11.182;2023-01-28T11:44:25;8.55;;;3.65;;
55254;SDS011;41118;44.634;11.182;2023-01-28T11:49:27;8.88;;;2.78;;
55254;SDS011;41118;44.634;11.182;2023-01-28T11:57:20;11.40;;;2.28;;
55254;SDS011;41118;44.634;11.182;2023-01-28T12:05:23;9.57;;;2.00;;
55254;SDS011;41118;44.634;11.182;2023-01-28T12:12:43;6.40;;;1.05;;
55254;SDS011;41118;44.634;11.182;2023-01-28T12:26:04;8.02;;;2.00;;
55254;SDS011;41118;44.634;11.182;2023-01-28T12:33:27;4.22;;;1.25;;
55254;SDS011;41118;44.634;11.182;2023-01-28T12:41:15;11.60;;;2.58;;
55254;SDS011;41118;44.634;11.182;2023-01-28T12:43:51;7.18;;;1.75;;
55254;SDS011;41118;44.634;11.182;2023-01-28T12:48:59;5.15;;;1.75;;
55254;SDS011;41118;44.634;11.182;2023-01-28T12:51:41;6.72;;;1.85;;
55254;SDS011;41118;44.634;11.182;2023-01-28T12:54:16;9.13;;;2.40;;
55254;SDS011;41118;44.634;11.182;2023-01-28T12:56:45;5.45;;;1.27;;
55254;SDS011;41118;44.634;11.182;2023-01-28T12:59:24;9.13;;;3.45;;
55254;SDS011;41118;44.634;11.182;2023-01-28T13:02:12;11.55;;;2.15;;
55254;SDS011;41118;44.634;11.182;2023-01-28T13:07:09;8.63;;;3.22;;
55254;SDS011;41118;44.634;11.182;2023-01-28T13:09:40;10.98;;;2.38;;
55254;SDS011;41118;44.634;11.182;2023-01-28T13:12:08;8.13;;;2.95;;
55254;SDS011;41118;44.634;11.182;2023-01-28T13:14:35;12.60;;;2.83;;
55254;SDS011;41118;44.634;11.182;2023-01-28T13:17:11;10.60;;;2.20;;
55254;SDS011;41118;44.634;11.182;2023-01-28T13:19:40;12.18;;;1.42;;
55254;SDS011;41118;44.634;11.182;2023-01-28T13:22:24;12.75;;;2.47;;
55254;SDS011;41118;44.634;11.182;2023-01-28T13:24:51;9.60;;;2.63;;
55254;SDS011;41118;44.634;11.182;2023-01-28T13:27:22;17.13;;;2.28;;
55254;SDS011;41118;44.634;11.182;2023-01-28T13:29:59;9.80;;;1.90;;
55254;SDS011;41118;44.634;11.182;2023-01-28T13:32:26;8.15;;;1.65;;
55254;SDS011;41118;44.634;11.182;2023-01-28T13:34:57;7.95;;;2.33;;
55254;SDS011;41118;44.634;11.182;2023-01-28T13:39:59;9.20;;;1.67;;
55254;SDS011;41118;44.634;11.182;2023-01-28T13:42:27;9.43;;;3.00;;
55254;SDS011;41118;44.634;11.182;2023-01-28T13:44:54;11.07;;;2.80;;
55254;SDS011;41118;44.634;11.182;2023-01-28T13:47:28;9.32;;;2.17;;
55254;SDS011;41118;44.634;11.182;2023-01-28T13:49:56;9.93;;;2.70;;
55254;SDS011;41118;44.634;11.182;2023-01-28T13:52:28;9.15;;;2.65;;
55254;SDS011;41118;44.634;11.182;2023-01-28T14:13:17;7.50;;;2.10;;
55254;SDS011;41118;44.634;11.182;2023-01-28T14:21:02;10.65;;;3.00;;
55254;SDS011;41118;44.634;11.182;2023-01-28T14:23:33;8.07;;;1.65;;
55254;SDS011;41118;44.634;11.182;2023-01-28T14:31:47;12.18;;;2.03;;
55254;SDS011;41118;44.634;11.182;2023-01-28T14:36:49;9.75;;;2.55;;
55254;SDS011;41118;44.634;11.182;2023-01-28T14:41:42;7.57;;;2.13;;
55254;SDS011;41118;44.634;11.182;2023-01-28T14:44:08;11.50;;;3.28;;
55254;SDS011;41118;44.634;11.182;2023-01-28T14:46:53;6.60;;;1.75;;
55254;SDS011;41118;44.634;11.182;2023-01-28T14:49:34;6.05;;;1.63;;
55254;SDS011;41118;44.634;11.182;2023-01-28T14:57:12;7.60;;;2.35;;
55254;SDS011;41118;44.634;11.182;2023-01-28T14:59:43;8.15;;;3.00;;
55254;SDS011;41118;44.634;11.182;2023-01-28T15:02:20;12.27;;;2.95;;
55254;SDS011;41118;44.634;11.182;2023-01-28T15:04:47;9.25;;;2.00;;
55254;SDS011;41118;44.634;11.182;2023-01-28T15:07:15;8.32;;;1.83;;
55254;SDS011;41118;44.634;11.182;2023-01-28T15:09:42;7.85;;;2.28;;
55254;SDS011;41118;44.634;11.182;2023-01-28T15:12:08;12.23;;;1.75;;
55254;SDS011;41118;44.634;11.182;2023-01-28T15:14:34;10.20;;;3.05;;
55254;SDS011;41118;44.634;11.182;2023-01-28T15:17:01;8.35;;;1.40;;
55254;SDS011;41118;44.634;11.182;2023-01-28T15:19:28;10.65;;;2.47;;
55254;SDS011;41118;44.634;11.182;2023-01-28T15:21:56;7.97;;;2.05;;
55254;SDS011;41118;44.634;11.182;2023-01-28T15:24:22;10.77;;;2.55;;
55254;SDS011;41118;44.634;11.182;2023-01-28T15:26:48;12.27;;;2.75;;
55254;SDS011;41118;44.634;11.182;2023-01-28T15:31:50;8.68;;;2.25;;
55254;SDS011;41118;44.634;11.182;2023-01-28T15:34:17;9.57;;;2.85;;
55254;SDS011;41118;44.634;11.182;2023-01-28T15:36:43;9.40;;;2.55;;
55254;SDS011;41118;44.634;11.182;2023-01-28T15:39:15;13.80;;;2.78;;
55254;SDS011;41118;44.634;11.182;2023-01-28T15:41:52;13.38;;;5.22;;
55254;SDS011;41118;44.634;11.182;2023-01-28T15:44:34;16.70;;;5.38;;
55254;SDS011;41118;44.634;11.182;2023-01-28T15:47:03;20.70;;;6.72;;
55254;SDS011;41118;44.634;11.182;2023-01-28T15:52:02;19.00;;;5.35;;
55254;SDS011;41118;44.634;11.182;2023-01-28T15:54:28;8.55;;;2.53;;
55254;SDS011;41118;44.634;11.182;2023-01-28T15:56:55;12.48;;;4.00;;
55254;SDS011;41118;44.634;11.182;2023-01-28T15:59:25;14.55;;;4.80;;
55254;SDS011;41118;44.634;11.182;2023-01-28T16:07:23;13.10;;;2.20;;
55254;SDS011;41118;44.634;11.182;2023-01-28T16:09:53;13.27;;;3.03;;
55254;SDS011;41118;44.634;11.182;2023-01-28T16:12:20;14.57;;;3.03;;
55254;SDS011;41118;44.634;11.182;2023-01-28T16:15:01;14.30;;;3.55;;
55254;SDS011;41118;44.634;11.182;2023-01-28T16:17:30;9.05;;;2.72;;
55254;SDS011;41118;44.634;11.182;2023-01-28T16:20:01;10.27;;;4.30;;
55254;SDS011;41118;44.634;11.182;2023-01-28T16:22:32;12.52;;;4.10;;
55254;SDS011;41118;44.634;11.182;2023-01-28T16:24:59;14.63;;;2.97;;
55254;SDS011;41118;44.634;11.182;2023-01-28T16:27:27;12.15;;;4.38;;
55254;SDS011;41118;44.634;11.182;2023-01-28T16:29:53;11.73;;;3.05;;
55254;SDS011;41118;44.634;11.182;2023-01-28T16:34:58;11.82;;;2.75;;
55254;SDS011;41118;44.634;11.182;2023-01-28T16:37:24;16.05;;;3.90;;
55254;SDS011;41118;44.634;11.182;2023-01-28T16:39:50;12.13;;;3.60;;
55254;SDS011;41118;44.634;11.182;2023-01-28T16:42:17;15.50;;;4.15;;
55254;SDS011;41118;44.634;11.182;2023-01-28T16:44:43;11.38;;;3.28;;
55254;SDS011;41118;44.634;11.182;2023-01-28T16:47:09;9.05;;;2.50;;
55254;SDS011;41118;44.634;11.182;2023-01-28T16:49:36;8.63;;;3.97;;
55254;SDS011;41118;44.634;11.182;2023-01-28T16:52:02;11.82;;;3.92;;
55254;SDS011;41118;44.634;11.182;2023-01-28T16:54:29;14.85;;;4.57;;
55254;SDS011;41118;44.634;11.182;2023-01-28T16:56:55;14.10;;;3.38;;
55254;SDS011;41118;44.634;11.182;2023-01-28T16:59:22;17.00;;;4.40;;
55254;SDS011;41118;44.634;11.182;2023-01-28T17:01:48;12.13;;;4.97;;
55254;SDS011;41118;44.634;11.182;2023-01-28T17:04:15;18.83;;;4.88;;
55254;SDS011;41118;44.634;11.182;2023-01-28T17:06:41;17.33;;;6.85;;
55254;SDS011;41118;44.634;11.182;2023-01-28T17:09:08;11.38;;;4.85;;